Terminal Aerodrome Forecast
Issued by NWS

Home | Current Version | Previous Version | Text Only | Print | Product List | Glossary On
Versions: 1 2 3 4 5 6 7 8 9 10 11 12 13 14 15 16 17 18 19 20 21
000
FTUS44 KLZK 180500
TAFHRO
TAF
KHRO 180520Z 1806/1906 12007KT P6SM VCSH BKN007 BKN030 OVC040
      TEMPO 1806/1808 4SM -RAPLDZ BR OVC005
     FM180800 13004KT 3SM -DZ OVC006
      TEMPO 1808/1812 2SM -DZ BR OVC004
     FM181200 13004KT 1SM BR OVC004
     FM181500 14004KT 4SM BR OVC007=

USA.gov is the U.S. government's official web portal to all federal, state and local government web resources and services.